sensor_id;sensor_type;location;lat;lon;timestamp;P1;durP1;ratioP1;P2;durP2;ratioP2
40867;SDS011;26586;50.708;22.412;2023-03-14T00:00:06;4.53;;;2.23;;
40867;SDS011;26586;50.708;22.412;2023-03-14T00:02:58;5.40;;;2.40;;
40867;SDS011;26586;50.708;22.412;2023-03-14T00:05:24;3.20;;;1.70;;
40867;SDS011;26586;50.708;22.412;2023-03-14T00:07:50;4.57;;;2.50;;
40867;SDS011;26586;50.708;22.412;2023-03-14T00:10:17;5.07;;;2.35;;
40867;SDS011;26586;50.708;22.412;2023-03-14T00:12:44;6.38;;;2.42;;
40867;SDS011;26586;50.708;22.412;2023-03-14T00:15:10;5.07;;;2.17;;
40867;SDS011;26586;50.708;22.412;2023-03-14T00:17:37;3.10;;;1.90;;
40867;SDS011;26586;50.708;22.412;2023-03-14T00:20:04;3.75;;;2.13;;
40867;SDS011;26586;50.708;22.412;2023-03-14T00:22:34;5.90;;;2.40;;
40867;SDS011;26586;50.708;22.412;2023-03-14T00:25:01;4.93;;;2.03;;
40867;SDS011;26586;50.708;22.412;2023-03-14T00:27:27;4.18;;;2.42;;
40867;SDS011;26586;50.708;22.412;2023-03-14T00:29:53;6.15;;;2.13;;
40867;SDS011;26586;50.708;22.412;2023-03-14T00:32:20;4.63;;;2.40;;
40867;SDS011;26586;50.708;22.412;2023-03-14T00:34:46;4.72;;;2.67;;
40867;SDS011;26586;50.708;22.412;2023-03-14T00:37:12;3.33;;;2.17;;
40867;SDS011;26586;50.708;22.412;2023-03-14T00:39:39;4.05;;;1.95;;
40867;SDS011;26586;50.708;22.412;2023-03-14T00:42:05;3.70;;;2.30;;
40867;SDS011;26586;50.708;22.412;2023-03-14T00:44:32;3.33;;;2.10;;
40867;SDS011;26586;50.708;22.412;2023-03-14T00:46:58;3.53;;;1.98;;
40867;SDS011;26586;50.708;22.412;2023-03-14T00:49:24;2.88;;;1.83;;
40867;SDS011;26586;50.708;22.412;2023-03-14T00:51:51;4.00;;;2.33;;
40867;SDS011;26586;50.708;22.412;2023-03-14T00:54:19;3.33;;;2.00;;
40867;SDS011;26586;50.708;22.412;2023-03-14T00:56:46;4.05;;;2.05;;
40867;SDS011;26586;50.708;22.412;2023-03-14T00:59:13;2.90;;;1.88;;
40867;SDS011;26586;50.708;22.412;2023-03-14T01:01:40;4.13;;;2.20;;
40867;SDS011;26586;50.708;22.412;2023-03-14T01:04:07;3.92;;;1.73;;
40867;SDS011;26586;50.708;22.412;2023-03-14T01:06:33;6.00;;;1.95;;
40867;SDS011;26586;50.708;22.412;2023-03-14T01:09:00;3.50;;;2.27;;
40867;SDS011;26586;50.708;22.412;2023-03-14T01:11:27;3.83;;;2.00;;
40867;SDS011;26586;50.708;22.412;2023-03-14T01:13:55;4.22;;;1.92;;
40867;SDS011;26586;50.708;22.412;2023-03-14T01:16:23;2.95;;;1.52;;
40867;SDS011;26586;50.708;22.412;2023-03-14T01:18:51;2.75;;;1.70;;
40867;SDS011;26586;50.708;22.412;2023-03-14T01:21:19;3.47;;;1.88;;
40867;SDS011;26586;50.708;22.412;2023-03-14T01:23:50;2.92;;;1.80;;
40867;SDS011;26586;50.708;22.412;2023-03-14T01:26:19;4.07;;;2.22;;
40867;SDS011;26586;50.708;22.412;2023-03-14T01:28:47;3.90;;;2.03;;
40867;SDS011;26586;50.708;22.412;2023-03-14T01:31:14;3.63;;;2.20;;
40867;SDS011;26586;50.708;22.412;2023-03-14T01:33:41;4.15;;;2.10;;
40867;SDS011;26586;50.708;22.412;2023-03-14T01:36:08;3.63;;;2.03;;
40867;SDS011;26586;50.708;22.412;2023-03-14T01:38:35;3.25;;;1.98;;
40867;SDS011;26586;50.708;22.412;2023-03-14T01:41:03;4.13;;;1.83;;
40867;SDS011;26586;50.708;22.412;2023-03-14T01:43:30;3.97;;;1.90;;
40867;SDS011;26586;50.708;22.412;2023-03-14T01:48:39;2.55;;;1.50;;
40867;SDS011;26586;50.708;22.412;2023-03-14T01:51:29;3.58;;;2.15;;
40867;SDS011;26586;50.708;22.412;2023-03-14T01:54:08;3.97;;;2.20;;
40867;SDS011;26586;50.708;22.412;2023-03-14T01:56:40;2.85;;;1.80;;
40867;SDS011;26586;50.708;22.412;2023-03-14T01:59:08;3.33;;;1.73;;
40867;SDS011;26586;50.708;22.412;2023-03-14T02:01:37;2.05;;;1.42;;
40867;SDS011;26586;50.708;22.412;2023-03-14T02:04:07;3.38;;;1.67;;
40867;SDS011;26586;50.708;22.412;2023-03-14T02:06:47;5.05;;;1.85;;
40867;SDS011;26586;50.708;22.412;2023-03-14T02:09:14;3.80;;;2.08;;
40867;SDS011;26586;50.708;22.412;2023-03-14T02:14:10;3.15;;;1.73;;
40867;SDS011;26586;50.708;22.412;2023-03-14T02:16:44;3.40;;;1.58;;
40867;SDS011;26586;50.708;22.412;2023-03-14T02:19:11;2.28;;;1.45;;
40867;SDS011;26586;50.708;22.412;2023-03-14T02:24:34;4.60;;;1.83;;
40867;SDS011;26586;50.708;22.412;2023-03-14T02:27:22;3.33;;;1.90;;
40867;SDS011;26586;50.708;22.412;2023-03-14T02:29:58;3.90;;;1.92;;
40867;SDS011;26586;50.708;22.412;2023-03-14T02:32:26;3.47;;;1.80;;
40867;SDS011;26586;50.708;22.412;2023-03-14T02:34:56;3.53;;;2.00;;
40867;SDS011;26586;50.708;22.412;2023-03-14T02:37:27;6.28;;;2.67;;
40867;SDS011;26586;50.708;22.412;2023-03-14T02:40:00;3.25;;;2.13;;
40867;SDS011;26586;50.708;22.412;2023-03-14T02:42:26;5.13;;;2.75;;
40867;SDS011;26586;50.708;22.412;2023-03-14T02:47:34;6.35;;;2.90;;
40867;SDS011;26586;50.708;22.412;2023-03-14T02:50:13;4.43;;;2.45;;
40867;SDS011;26586;50.708;22.412;2023-03-14T02:52:46;3.40;;;1.75;;
40867;SDS011;26586;50.708;22.412;2023-03-14T02:55:12;3.50;;;1.80;;
40867;SDS011;26586;50.708;22.412;2023-03-14T02:57:38;3.83;;;1.90;;
40867;SDS011;26586;50.708;22.412;2023-03-14T03:00:04;2.65;;;1.80;;
40867;SDS011;26586;50.708;22.412;2023-03-14T03:04:57;2.83;;;1.65;;
40867;SDS011;26586;50.708;22.412;2023-03-14T03:07:24;2.45;;;1.55;;
40867;SDS011;26586;50.708;22.412;2023-03-14T03:09:50;3.40;;;1.65;;
40867;SDS011;26586;50.708;22.412;2023-03-14T03:12:17;2.57;;;1.20;;
40867;SDS011;26586;50.708;22.412;2023-03-14T03:14:43;3.13;;;1.70;;
40867;SDS011;26586;50.708;22.412;2023-03-14T03:17:09;4.17;;;1.50;;
40867;SDS011;26586;50.708;22.412;2023-03-14T03:19:35;2.22;;;1.33;;
40867;SDS011;26586;50.708;22.412;2023-03-14T03:22:01;3.23;;;1.47;;
40867;SDS011;26586;50.708;22.412;2023-03-14T03:24:28;2.95;;;1.50;;
40867;SDS011;26586;50.708;22.412;2023-03-14T03:26:54;3.10;;;1.93;;
40867;SDS011;26586;50.708;22.412;2023-03-14T03:29:20;3.40;;;1.60;;
40867;SDS011;26586;50.708;22.412;2023-03-14T03:31:47;2.53;;;1.63;;
40867;SDS011;26586;50.708;22.412;2023-03-14T03:34:13;3.00;;;1.67;;
40867;SDS011;26586;50.708;22.412;2023-03-14T03:36:40;3.55;;;1.50;;
40867;SDS011;26586;50.708;22.412;2023-03-14T03:39:07;3.05;;;1.50;;
40867;SDS011;26586;50.708;22.412;2023-03-14T03:41:33;2.75;;;1.83;;
40867;SDS011;26586;50.708;22.412;2023-03-14T03:43:59;2.33;;;1.30;;
40867;SDS011;26586;50.708;22.412;2023-03-14T03:46:26;4.50;;;2.50;;
40867;SDS011;26586;50.708;22.412;2023-03-14T03:48:56;2.40;;;1.48;;
40867;SDS011;26586;50.708;22.412;2023-03-14T03:51:25;2.55;;;1.40;;
40867;SDS011;26586;50.708;22.412;2023-03-14T03:53:52;4.60;;;2.22;;
40867;SDS011;26586;50.708;22.412;2023-03-14T03:56:18;4.60;;;2.93;;
40867;SDS011;26586;50.708;22.412;2023-03-14T03:58:44;4.72;;;2.72;;
40867;SDS011;26586;50.708;22.412;2023-03-14T04:01:11;6.93;;;3.30;;
40867;SDS011;26586;50.708;22.412;2023-03-14T04:03:37;4.60;;;3.05;;
40867;SDS011;26586;50.708;22.412;2023-03-14T04:06:08;3.10;;;2.30;;
40867;SDS011;26586;50.708;22.412;2023-03-14T04:08:36;4.18;;;2.22;;
40867;SDS011;26586;50.708;22.412;2023-03-14T04:11:03;2.35;;;1.58;;
40867;SDS011;26586;50.708;22.412;2023-03-14T04:13:29;3.33;;;2.30;;
40867;SDS011;26586;50.708;22.412;2023-03-14T04:15:56;3.93;;;2.20;;
40867;SDS011;26586;50.708;22.412;2023-03-14T04:18:22;2.80;;;1.77;;
40867;SDS011;26586;50.708;22.412;2023-03-14T04:20:53;2.50;;;1.70;;
40867;SDS011;26586;50.708;22.412;2023-03-14T04:23:20;4.50;;;2.35;;
40867;SDS011;26586;50.708;22.412;2023-03-14T04:25:50;3.22;;;1.30;;
40867;SDS011;26586;50.708;22.412;2023-03-14T04:28:17;3.92;;;1.48;;
40867;SDS011;26586;50.708;22.412;2023-03-14T04:30:43;3.38;;;1.92;;
40867;SDS011;26586;50.708;22.412;2023-03-14T04:33:09;2.70;;;1.50;;
40867;SDS011;26586;50.708;22.412;2023-03-14T04:35:36;3.13;;;1.90;;
40867;SDS011;26586;50.708;22.412;2023-03-14T04:38:02;5.07;;;2.38;;
40867;SDS011;26586;50.708;22.412;2023-03-14T04:40:28;5.45;;;3.28;;
40867;SDS011;26586;50.708;22.412;2023-03-14T04:42:54;4.60;;;2.60;;
40867;SDS011;26586;50.708;22.412;2023-03-14T04:45:21;2.87;;;1.70;;
40867;SDS011;26586;50.708;22.412;2023-03-14T04:47:47;9.77;;;8.57;;
40867;SDS011;26586;50.708;22.412;2023-03-14T04:50:13;13.73;;;8.70;;
40867;SDS011;26586;50.708;22.412;2023-03-14T04:52:40;14.48;;;11.20;;
40867;SDS011;26586;50.708;22.412;2023-03-14T04:55:06;7.70;;;5.47;;
40867;SDS011;26586;50.708;22.412;2023-03-14T04:57:32;12.75;;;5.63;;
40867;SDS011;26586;50.708;22.412;2023-03-14T04:59:59;3.37;;;2.40;;
40867;SDS011;26586;50.708;22.412;2023-03-14T05:02:25;5.80;;;3.22;;
40867;SDS011;26586;50.708;22.412;2023-03-14T05:04:51;5.63;;;3.50;;
40867;SDS011;26586;50.708;22.412;2023-03-14T05:07:17;8.95;;;4.03;;
40867;SDS011;26586;50.708;22.412;2023-03-14T05:09:44;5.27;;;3.50;;
40867;SDS011;26586;50.708;22.412;2023-03-14T05:12:10;6.43;;;3.13;;
40867;SDS011;26586;50.708;22.412;2023-03-14T05:14:36;12.57;;;3.90;;
40867;SDS011;26586;50.708;22.412;2023-03-14T05:17:03;7.10;;;4.32;;
40867;SDS011;26586;50.708;22.412;2023-03-14T05:19:29;5.32;;;2.70;;
40867;SDS011;26586;50.708;22.412;2023-03-14T05:21:55;10.18;;;4.45;;
40867;SDS011;26586;50.708;22.412;2023-03-14T05:24:22;8.15;;;4.05;;
40867;SDS011;26586;50.708;22.412;2023-03-14T05:26:48;8.38;;;4.03;;
40867;SDS011;26586;50.708;22.412;2023-03-14T05:29:15;41.47;;;16.53;;
40867;SDS011;26586;50.708;22.412;2023-03-14T05:31:41;40.17;;;19.60;;
40867;SDS011;26586;50.708;22.412;2023-03-14T05:34:07;37.77;;;17.07;;
40867;SDS011;26586;50.708;22.412;2023-03-14T05:36:33;100.63;;;46.67;;
40867;SDS011;26586;50.708;22.412;2023-03-14T05:38:59;85.63;;;43.93;;
40867;SDS011;26586;50.708;22.412;2023-03-14T05:41:25;38.38;;;21.48;;
40867;SDS011;26586;50.708;22.412;2023-03-14T05:43:52;30.27;;;16.20;;
40867;SDS011;26586;50.708;22.412;2023-03-14T05:46:18;24.08;;;13.27;;
40867;SDS011;26586;50.708;22.412;2023-03-14T05:48:44;18.70;;;10.53;;
40867;SDS011;26586;50.708;22.412;2023-03-14T05:51:10;13.35;;;7.70;;
40867;SDS011;26586;50.708;22.412;2023-03-14T05:53:37;11.07;;;5.93;;
40867;SDS011;26586;50.708;22.412;2023-03-14T05:56:03;8.02;;;5.05;;
40867;SDS011;26586;50.708;22.412;2023-03-14T05:58:29;7.20;;;3.22;;
40867;SDS011;26586;50.708;22.412;2023-03-14T06:00:56;7.13;;;3.70;;
40867;SDS011;26586;50.708;22.412;2023-03-14T06:03:22;6.40;;;3.53;;
40867;SDS011;26586;50.708;22.412;2023-03-14T06:05:51;5.88;;;3.40;;
40867;SDS011;26586;50.708;22.412;2023-03-14T06:08:17;12.32;;;5.60;;
40867;SDS011;26586;50.708;22.412;2023-03-14T06:10:43;11.13;;;5.55;;
40867;SDS011;26586;50.708;22.412;2023-03-14T06:13:10;10.40;;;4.70;;
40867;SDS011;26586;50.708;22.412;2023-03-14T06:15:36;7.32;;;4.82;;
40867;SDS011;26586;50.708;22.412;2023-03-14T06:18:02;13.00;;;3.83;;
40867;SDS011;26586;50.708;22.412;2023-03-14T06:20:28;5.75;;;3.00;;
40867;SDS011;26586;50.708;22.412;2023-03-14T06:22:55;6.20;;;2.63;;
40867;SDS011;26586;50.708;22.412;2023-03-14T06:25:21;5.53;;;2.53;;
40867;SDS011;26586;50.708;22.412;2023-03-14T06:27:47;5.83;;;2.27;;
40867;SDS011;26586;50.708;22.412;2023-03-14T06:30:13;5.72;;;3.60;;
40867;SDS011;26586;50.708;22.412;2023-03-14T06:32:40;7.25;;;5.85;;
40867;SDS011;26586;50.708;22.412;2023-03-14T06:35:06;4.40;;;2.00;;
40867;SDS011;26586;50.708;22.412;2023-03-14T06:37:32;7.88;;;2.65;;
40867;SDS011;26586;50.708;22.412;2023-03-14T06:39:58;3.45;;;1.80;;
40867;SDS011;26586;50.708;22.412;2023-03-14T06:42:25;4.22;;;2.03;;
40867;SDS011;26586;50.708;22.412;2023-03-14T06:44:51;4.63;;;2.35;;
40867;SDS011;26586;50.708;22.412;2023-03-14T06:47:18;10.18;;;2.63;;
40867;SDS011;26586;50.708;22.412;2023-03-14T06:49:44;5.18;;;2.90;;
40867;SDS011;26586;50.708;22.412;2023-03-14T06:52:10;6.10;;;3.67;;
40867;SDS011;26586;50.708;22.412;2023-03-14T06:54:36;130.68;;;69.43;;
40867;SDS011;26586;50.708;22.412;2023-03-14T06:57:02;229.27;;;125.63;;
40867;SDS011;26586;50.708;22.412;2023-03-14T06:59:28;98.43;;;56.03;;
40867;SDS011;26586;50.708;22.412;2023-03-14T07:01:55;32.50;;;22.63;;
40867;SDS011;26586;50.708;22.412;2023-03-14T07:04:21;5.13;;;3.90;;
40867;SDS011;26586;50.708;22.412;2023-03-14T07:06:47;7.03;;;3.43;;
40867;SDS011;26586;50.708;22.412;2023-03-14T07:09:14;5.13;;;2.22;;
40867;SDS011;26586;50.708;22.412;2023-03-14T07:11:42;9.90;;;4.05;;
40867;SDS011;26586;50.708;22.412;2023-03-14T07:14:09;5.97;;;3.17;;
40867;SDS011;26586;50.708;22.412;2023-03-14T07:16:35;11.85;;;4.60;;
40867;SDS011;26586;50.708;22.412;2023-03-14T07:19:01;4.60;;;3.15;;
40867;SDS011;26586;50.708;22.412;2023-03-14T07:21:28;8.32;;;5.07;;
40867;SDS011;26586;50.708;22.412;2023-03-14T07:23:55;7.53;;;4.35;;
40867;SDS011;26586;50.708;22.412;2023-03-14T07:26:21;6.10;;;2.63;;
40867;SDS011;26586;50.708;22.412;2023-03-14T07:28:47;6.20;;;3.20;;
40867;SDS011;26586;50.708;22.412;2023-03-14T07:31:13;7.13;;;3.70;;
40867;SDS011;26586;50.708;22.412;2023-03-14T07:33:39;5.85;;;2.55;;
40867;SDS011;26586;50.708;22.412;2023-03-14T07:36:06;9.93;;;5.90;;
40867;SDS011;26586;50.708;22.412;2023-03-14T07:38:32;28.42;;;23.67;;
40867;SDS011;26586;50.708;22.412;2023-03-14T07:40:59;7.60;;;3.70;;
40867;SDS011;26586;50.708;22.412;2023-03-14T07:43:27;8.85;;;4.07;;
40867;SDS011;26586;50.708;22.412;2023-03-14T07:45:53;10.57;;;4.07;;
40867;SDS011;26586;50.708;22.412;2023-03-14T07:48:19;9.55;;;4.30;;
40867;SDS011;26586;50.708;22.412;2023-03-14T07:50:51;6.82;;;4.45;;
40867;SDS011;26586;50.708;22.412;2023-03-14T07:53:18;6.35;;;3.00;;
40867;SDS011;26586;50.708;22.412;2023-03-14T07:55:46;3.30;;;2.08;;
40867;SDS011;26586;50.708;22.412;2023-03-14T07:58:13;3.83;;;3.03;;
40867;SDS011;26586;50.708;22.412;2023-03-14T08:00:40;4.55;;;2.50;;
40867;SDS011;26586;50.708;22.412;2023-03-14T08:03:06;4.30;;;1.88;;
40867;SDS011;26586;50.708;22.412;2023-03-14T08:05:36;4.55;;;2.03;;
40867;SDS011;26586;50.708;22.412;2023-03-14T08:08:03;7.05;;;3.05;;
40867;SDS011;26586;50.708;22.412;2023-03-14T08:12:57;3.40;;;2.47;;
40867;SDS011;26586;50.708;22.412;2023-03-14T08:15:24;3.25;;;1.48;;
40867;SDS011;26586;50.708;22.412;2023-03-14T08:17:51;6.20;;;3.30;;
40867;SDS011;26586;50.708;22.412;2023-03-14T08:20:22;4.70;;;2.53;;
40867;SDS011;26586;50.708;22.412;2023-03-14T08:22:50;4.85;;;1.95;;
40867;SDS011;26586;50.708;22.412;2023-03-14T08:25:17;4.60;;;2.42;;
40867;SDS011;26586;50.708;22.412;2023-03-14T08:27:44;3.63;;;2.00;;
40867;SDS011;26586;50.708;22.412;2023-03-14T08:30:11;3.00;;;1.30;;
40867;SDS011;26586;50.708;22.412;2023-03-14T08:32:39;4.38;;;2.60;;
40867;SDS011;26586;50.708;22.412;2023-03-14T08:35:06;3.72;;;2.28;;
40867;SDS011;26586;50.708;22.412;2023-03-14T08:37:33;4.63;;;3.00;;
40867;SDS011;26586;50.708;22.412;2023-03-14T08:39:59;21.42;;;12.82;;
40867;SDS011;26586;50.708;22.412;2023-03-14T08:42:25;42.33;;;26.48;;
40867;SDS011;26586;50.708;22.412;2023-03-14T08:44:52;38.80;;;25.52;;
40867;SDS011;26586;50.708;22.412;2023-03-14T08:47:18;8.85;;;6.95;;
40867;SDS011;26586;50.708;22.412;2023-03-14T08:49:45;3.78;;;2.83;;
40867;SDS011;26586;50.708;22.412;2023-03-14T08:52:11;7.70;;;3.25;;
40867;SDS011;26586;50.708;22.412;2023-03-14T08:54:37;5.15;;;1.90;;
40867;SDS011;26586;50.708;22.412;2023-03-14T08:57:03;6.85;;;4.38;;
40867;SDS011;26586;50.708;22.412;2023-03-14T08:59:30;3.25;;;2.13;;
40867;SDS011;26586;50.708;22.412;2023-03-14T09:01:57;15.43;;;10.93;;
40867;SDS011;26586;50.708;22.412;2023-03-14T09:04:23;13.23;;;11.87;;
40867;SDS011;26586;50.708;22.412;2023-03-14T09:06:49;6.97;;;5.82;;
40867;SDS011;26586;50.708;22.412;2023-03-14T09:09:15;30.73;;;21.52;;
40867;SDS011;26586;50.708;22.412;2023-03-14T09:11:42;21.40;;;13.57;;
40867;SDS011;26586;50.708;22.412;2023-03-14T09:14:08;34.88;;;21.15;;
40867;SDS011;26586;50.708;22.412;2023-03-14T09:16:34;49.53;;;31.15;;
40867;SDS011;26586;50.708;22.412;2023-03-14T09:19:01;34.83;;;20.40;;
40867;SDS011;26586;50.708;22.412;2023-03-14T09:21:27;74.10;;;46.40;;
40867;SDS011;26586;50.708;22.412;2023-03-14T09:23:54;26.75;;;8.57;;
40867;SDS011;26586;50.708;22.412;2023-03-14T09:26:20;17.48;;;8.73;;
40867;SDS011;26586;50.708;22.412;2023-03-14T09:28:46;30.77;;;8.45;;
40867;SDS011;26586;50.708;22.412;2023-03-14T09:31:12;23.08;;;10.70;;
40867;SDS011;26586;50.708;22.412;2023-03-14T09:33:39;15.75;;;8.75;;
40867;SDS011;26586;50.708;22.412;2023-03-14T09:36:05;2.88;;;1.60;;
40867;SDS011;26586;50.708;22.412;2023-03-14T09:38:33;19.67;;;4.88;;
40867;SDS011;26586;50.708;22.412;2023-03-14T09:41:00;30.33;;;8.93;;
40867;SDS011;26586;50.708;22.412;2023-03-14T09:43:29;20.40;;;7.55;;
40867;SDS011;26586;50.708;22.412;2023-03-14T09:45:57;17.65;;;6.47;;
40867;SDS011;26586;50.708;22.412;2023-03-14T09:48:28;14.90;;;6.13;;
40867;SDS011;26586;50.708;22.412;2023-03-14T09:50:57;7.93;;;4.57;;
40867;SDS011;26586;50.708;22.412;2023-03-14T09:53:46;9.55;;;2.88;;
40867;SDS011;26586;50.708;22.412;2023-03-14T09:56:25;17.23;;;4.10;;
40867;SDS011;26586;50.708;22.412;2023-03-14T09:58:54;9.77;;;3.78;;
40867;SDS011;26586;50.708;22.412;2023-03-14T10:01:30;17.60;;;6.43;;
40867;SDS011;26586;50.708;22.412;2023-03-14T10:04:00;34.90;;;20.35;;
40867;SDS011;26586;50.708;22.412;2023-03-14T10:06:35;5.00;;;3.03;;
40867;SDS011;26586;50.708;22.412;2023-03-14T10:09:02;4.10;;;2.25;;
40867;SDS011;26586;50.708;22.412;2023-03-14T10:11:29;4.25;;;2.35;;
40867;SDS011;26586;50.708;22.412;2023-03-14T10:14:06;4.45;;;1.55;;
40867;SDS011;26586;50.708;22.412;2023-03-14T10:16:35;8.63;;;2.42;;
40867;SDS011;26586;50.708;22.412;2023-03-14T10:19:15;2.90;;;1.42;;
40867;SDS011;26586;50.708;22.412;2023-03-14T10:21:43;4.70;;;1.20;;
40867;SDS011;26586;50.708;22.412;2023-03-14T10:24:20;4.32;;;1.60;;
40867;SDS011;26586;50.708;22.412;2023-03-14T10:26:49;4.35;;;1.70;;
40867;SDS011;26586;50.708;22.412;2023-03-14T10:29:20;4.32;;;2.08;;
40867;SDS011;26586;50.708;22.412;2023-03-14T10:31:53;4.15;;;1.88;;
40867;SDS011;26586;50.708;22.412;2023-03-14T10:34:34;7.07;;;2.53;;
40867;SDS011;26586;50.708;22.412;2023-03-14T10:37:06;5.00;;;2.28;;
40867;SDS011;26586;50.708;22.412;2023-03-14T10:42:11;3.08;;;1.35;;
40867;SDS011;26586;50.708;22.412;2023-03-14T10:44:48;4.05;;;1.15;;
40867;SDS011;26586;50.708;22.412;2023-03-14T10:47:19;2.88;;;1.60;;
40867;SDS011;26586;50.708;22.412;2023-03-14T10:49:50;4.25;;;1.65;;
40867;SDS011;26586;50.708;22.412;2023-03-14T10:54:57;3.38;;;2.03;;
40867;SDS011;26586;50.708;22.412;2023-03-14T10:57:24;2.80;;;1.45;;
40867;SDS011;26586;50.708;22.412;2023-03-14T10:59:52;2.33;;;1.42;;
40867;SDS011;26586;50.708;22.412;2023-03-14T11:02:34;2.85;;;1.02;;
40867;SDS011;26586;50.708;22.412;2023-03-14T11:05:21;2.45;;;1.33;;
40867;SDS011;26586;50.708;22.412;2023-03-14T11:11:07;1.60;;;1.25;;
40867;SDS011;26586;50.708;22.412;2023-03-14T11:16:43;6.82;;;1.20;;
40867;SDS011;26586;50.708;22.412;2023-03-14T11:22:47;2.05;;;1.08;;
40867;SDS011;26586;50.708;22.412;2023-03-14T11:28:18;2.42;;;1.23;;
40867;SDS011;26586;50.708;22.412;2023-03-14T11:30:52;2.95;;;1.60;;
40867;SDS011;26586;50.708;22.412;2023-03-14T11:33:27;1.98;;;0.98;;
40867;SDS011;26586;50.708;22.412;2023-03-14T11:36:08;8.15;;;3.97;;
40867;SDS011;26586;50.708;22.412;2023-03-14T11:38:38;25.90;;;13.55;;
40867;SDS011;26586;50.708;22.412;2023-03-14T11:41:09;12.70;;;8.57;;
40867;SDS011;26586;50.708;22.412;2023-03-14T11:43:39;3.75;;;2.20;;
40867;SDS011;26586;50.708;22.412;2023-03-14T11:46:50;4.35;;;2.50;;
40867;SDS011;26586;50.708;22.412;2023-03-14T11:49:18;9.15;;;3.53;;
40867;SDS011;26586;50.708;22.412;2023-03-14T11:52:14;9.20;;;3.50;;
40867;SDS011;26586;50.708;22.412;2023-03-14T11:55:00;3.70;;;2.00;;
40867;SDS011;26586;50.708;22.412;2023-03-14T11:57:39;2.90;;;1.60;;
40867;SDS011;26586;50.708;22.412;2023-03-14T12:05:30;6.47;;;1.73;;
40867;SDS011;26586;50.708;22.412;2023-03-14T12:13:14;3.03;;;1.77;;
40867;SDS011;26586;50.708;22.412;2023-03-14T12:15:55;3.88;;;1.90;;
40867;SDS011;26586;50.708;22.412;2023-03-14T12:21:02;3.35;;;1.48;;
40867;SDS011;26586;50.708;22.412;2023-03-14T12:28:37;3.92;;;1.75;;
40867;SDS011;26586;50.708;22.412;2023-03-14T12:34:24;2.88;;;2.00;;
40867;SDS011;26586;50.708;22.412;2023-03-14T12:36:54;3.05;;;1.77;;
40867;SDS011;26586;50.708;22.412;2023-03-14T12:39:28;2.63;;;1.25;;
40867;SDS011;26586;50.708;22.412;2023-03-14T12:45:13;2.58;;;1.60;;
40867;SDS011;26586;50.708;22.412;2023-03-14T12:47:52;3.95;;;1.73;;
40867;SDS011;26586;50.708;22.412;2023-03-14T12:50:26;2.33;;;1.30;;
40867;SDS011;26586;50.708;22.412;2023-03-14T12:58:31;2.58;;;1.45;;
40867;SDS011;26586;50.708;22.412;2023-03-14T13:01:05;4.00;;;1.98;;
40867;SDS011;26586;50.708;22.412;2023-03-14T13:12:02;4.15;;;1.40;;
40867;SDS011;26586;50.708;22.412;2023-03-14T13:14:35;2.80;;;1.55;;
40867;SDS011;26586;50.708;22.412;2023-03-14T13:19:29;2.55;;;1.55;;
40867;SDS011;26586;50.708;22.412;2023-03-14T13:22:01;2.50;;;1.55;;
40867;SDS011;26586;50.708;22.412;2023-03-14T13:24:32;2.22;;;1.33;;
40867;SDS011;26586;50.708;22.412;2023-03-14T13:26:59;2.15;;;1.35;;
40867;SDS011;26586;50.708;22.412;2023-03-14T13:29:27;4.82;;;1.40;;
40867;SDS011;26586;50.708;22.412;2023-03-14T13:31:58;4.10;;;1.77;;
40867;SDS011;26586;50.708;22.412;2023-03-14T13:34:29;2.17;;;1.13;;
40867;SDS011;26586;50.708;22.412;2023-03-14T13:36:59;5.20;;;1.92;;
40867;SDS011;26586;50.708;22.412;2023-03-14T13:39:26;3.15;;;1.50;;
40867;SDS011;26586;50.708;22.412;2023-03-14T13:42:00;2.60;;;1.65;;
40867;SDS011;26586;50.708;22.412;2023-03-14T13:44:30;3.72;;;2.10;;
40867;SDS011;26586;50.708;22.412;2023-03-14T13:47:01;3.03;;;1.90;;
40867;SDS011;26586;50.708;22.412;2023-03-14T13:49:30;4.05;;;2.33;;
40867;SDS011;26586;50.708;22.412;2023-03-14T13:52:00;3.60;;;1.80;;
40867;SDS011;26586;50.708;22.412;2023-03-14T13:57:04;5.60;;;3.30;;
40867;SDS011;26586;50.708;22.412;2023-03-14T13:59:31;9.52;;;5.75;;
40867;SDS011;26586;50.708;22.412;2023-03-14T14:02:00;11.55;;;6.15;;
40867;SDS011;26586;50.708;22.412;2023-03-14T14:04:32;10.50;;;5.45;;
40867;SDS011;26586;50.708;22.412;2023-03-14T14:07:06;7.10;;;5.03;;
40867;SDS011;26586;50.708;22.412;2023-03-14T14:09:42;6.75;;;3.03;;
40867;SDS011;26586;50.708;22.412;2023-03-14T14:12:13;3.88;;;2.47;;
40867;SDS011;26586;50.708;22.412;2023-03-14T14:14:48;4.03;;;2.40;;
40867;SDS011;26586;50.708;22.412;2023-03-14T14:17:17;8.45;;;3.92;;
40867;SDS011;26586;50.708;22.412;2023-03-14T14:19:46;7.72;;;3.35;;
40867;SDS011;26586;50.708;22.412;2023-03-14T14:22:13;6.55;;;3.25;;
40867;SDS011;26586;50.708;22.412;2023-03-14T14:24:40;5.43;;;3.30;;
40867;SDS011;26586;50.708;22.412;2023-03-14T14:27:16;12.52;;;4.93;;
40867;SDS011;26586;50.708;22.412;2023-03-14T14:30:01;11.52;;;5.93;;
40867;SDS011;26586;50.708;22.412;2023-03-14T14:32:52;7.90;;;4.45;;
40867;SDS011;26586;50.708;22.412;2023-03-14T14:35:34;10.80;;;5.28;;
40867;SDS011;26586;50.708;22.412;2023-03-14T14:38:01;3.25;;;2.15;;
40867;SDS011;26586;50.708;22.412;2023-03-14T14:40:29;6.57;;;3.40;;
40867;SDS011;26586;50.708;22.412;2023-03-14T14:43:02;3.35;;;2.22;;
40867;SDS011;26586;50.708;22.412;2023-03-14T14:45:33;5.85;;;2.25;;
40867;SDS011;26586;50.708;22.412;2023-03-14T14:48:04;7.00;;;2.20;;
40867;SDS011;26586;50.708;22.412;2023-03-14T14:51:22;3.63;;;2.00;;
40867;SDS011;26586;50.708;22.412;2023-03-14T14:53:30;3.33;;;2.17;;
40867;SDS011;26586;50.708;22.412;2023-03-14T14:56:06;5.72;;;3.05;;
40867;SDS011;26586;50.708;22.412;2023-03-14T14:58:41;7.38;;;3.60;;
40867;SDS011;26586;50.708;22.412;2023-03-14T15:01:17;8.23;;;3.80;;
40867;SDS011;26586;50.708;22.412;2023-03-14T15:04:13;5.32;;;2.90;;
40867;SDS011;26586;50.708;22.412;2023-03-14T15:06:45;8.63;;;4.85;;
40867;SDS011;26586;50.708;22.412;2023-03-14T15:09:13;5.95;;;3.38;;
40867;SDS011;26586;50.708;22.412;2023-03-14T15:11:42;6.55;;;3.50;;
40867;SDS011;26586;50.708;22.412;2023-03-14T15:14:08;2.53;;;1.88;;
40867;SDS011;26586;50.708;22.412;2023-03-14T15:16:35;5.57;;;3.55;;
40867;SDS011;26586;50.708;22.412;2023-03-14T15:19:02;4.80;;;2.80;;
40867;SDS011;26586;50.708;22.412;2023-03-14T15:21:35;4.95;;;2.83;;
40867;SDS011;26586;50.708;22.412;2023-03-14T15:24:01;6.20;;;2.45;;
40867;SDS011;26586;50.708;22.412;2023-03-14T15:26:29;3.63;;;1.92;;
40867;SDS011;26586;50.708;22.412;2023-03-14T15:28:55;5.05;;;1.90;;
40867;SDS011;26586;50.708;22.412;2023-03-14T15:31:22;4.60;;;1.75;;
40867;SDS011;26586;50.708;22.412;2023-03-14T15:33:48;5.05;;;2.45;;
40867;SDS011;26586;50.708;22.412;2023-03-14T15:36:22;3.45;;;1.98;;
40867;SDS011;26586;50.708;22.412;2023-03-14T15:38:55;4.45;;;2.60;;
40867;SDS011;26586;50.708;22.412;2023-03-14T15:41:22;6.22;;;3.28;;
40867;SDS011;26586;50.708;22.412;2023-03-14T15:43:48;6.22;;;3.78;;
40867;SDS011;26586;50.708;22.412;2023-03-14T15:46:15;9.00;;;4.82;;
40867;SDS011;26586;50.708;22.412;2023-03-14T15:51:10;7.28;;;4.93;;
40867;SDS011;26586;50.708;22.412;2023-03-14T15:53:37;8.13;;;5.25;;
40867;SDS011;26586;50.708;22.412;2023-03-14T16:01:00;20.63;;;10.27;;
40867;SDS011;26586;50.708;22.412;2023-03-14T16:05:53;20.60;;;10.93;;
40867;SDS011;26586;50.708;22.412;2023-03-14T16:10:48;7.63;;;4.38;;